Barton, North Dakota
Current Conditions -  °F | °C
As of 4:35 AM on Saturday 25 Oct 2014 (Local Time) from KRUG Reporting Station
Clear Clear  
Wind Chill: 24°   Ceiling: Unl
Heat Index: 32°   Visibility: 10mi
Dew Point: 32°   Wind: 9mph
Humidity: 100%   Direction: 300°WNW
Pressure: 30.04"   Gusts: NA
Location:  48.5496°N, 100.255°W
Report Text: KRUG 250935Z AUTO 30008KT 10SM CLR 00/00 A3004 RMK AO2
Loading
Personal Weather Stations






























Interactive Weather Map
Tropical Storm Tracking
New forecast layout! Learn more

10-Day Weather Forecast

Advertisements
Track Severe Weather on mobile